Time;durP1;ratioP1;P1;durP2;ratioP2;P2;SDS_P1;SDS_P2;PMS_P1;PMS_P2;Temp;Humidity;BMP_temperature;BMP_pressure;BME280_temperature;BME280_humidity;BME280_pressure;Samples;Min_cycle;Max_cycle;Signal;HPM_P1;HPM_P2
2021/01/01 00:01:36;;;;;;;68.18;32.15;;;;;;;1.97;53.68;100376.03;4994967;28;20041;-70
2021/01/01 00:04:03;;;;;;;55.60;28.83;;;;;;;1.92;53.96;100376.94;4981931;28;20114;-70
2021/01/01 00:06:29;;;;;;;50.97;26.05;;;;;;;1.98;53.72;100380.31;4994639;28;20502;-70
2021/01/01 00:08:57;;;;;;;42.05;23.00;;;;;;;1.76;54.17;100377.16;4980045;28;20045;-70
2021/01/01 00:11:24;;;;;;;48.33;23.75;;;;;;;1.97;53.82;100376.03;4995742;28;20033;-70
2021/01/01 00:13:49;;;;;;;45.67;20.00;;;;;;;1.58;54.78;100375.63;4994443;28;20069;-70
2021/01/01 00:16:15;;;;;;;36.67;18.13;;;;;;;1.55;55.07;100370.50;4982311;28;20623;-70
2021/01/01 00:18:42;;;;;;;33.70;18.13;;;;;;;1.89;54.23;100381.28;4996562;28;20038;-70
2021/01/01 00:21:08;;;;;;;36.65;17.58;;;;;;;2.13;53.69;100382.69;4996602;28;20076;-70
2021/01/01 00:23:34;;;;;;;30.77;15.90;;;;;;;2.21;53.38;100388.59;4997315;28;20416;-69
2021/01/01 00:26:00;;;;;;;32.20;17.02;;;;;;;2.22;53.33;100385.16;5014997;28;20038;-70
2021/01/01 00:28:27;;;;;;;29.70;15.00;;;;;;;2.16;53.54;100381.81;5001385;28;20037;-70
2021/01/01 00:30:52;;;;;;;28.35;14.63;;;;;;;2.41;52.90;100388.34;5000898;28;20103;-70
2021/01/01 00:33:19;;;;;;;29.90;14.38;;;;;;;2.49;52.57;100385.66;5002396;28;20038;-70
2021/01/01 00:35:45;;;;;;;32.08;16.15;;;;;;;2.11;53.28;100387.88;4998724;28;20113;-69
2021/01/01 00:38:10;;;;;;;34.55;16.70;;;;;;;1.90;53.94;100382.97;4999054;28;20573;-70
2021/01/01 00:40:36;;;;;;;34.55;16.27;;;;;;;2.02;54.15;100389.69;5001535;28;20447;-70
2021/01/01 00:43:02;;;;;;;31.67;16.33;;;;;;;2.38;53.38;100397.84;5001451;28;20041;-70
2021/01/01 00:45:27;;;;;;;36.10;18.13;;;;;;;2.27;53.40;100393.69;5001349;28;20031;-70
2021/01/01 00:47:53;;;;;;;34.03;16.63;;;;;;;2.02;53.79;100392.28;4999799;28;20134;-70
2021/01/01 00:50:18;;;;;;;34.38;16.42;;;;;;;1.79;54.40;100393.41;5008446;28;20120;-70
2021/01/01 00:52:44;;;;;;;44.45;19.15;;;;;;;2.05;53.73;100389.69;4997199;28;20182;-69
2021/01/01 00:55:10;;;;;;;31.30;16.27;;;;;;;2.20;53.53;100388.63;5002630;28;20034;-69
2021/01/01 00:57:38;;;;;;;36.25;17.70;;;;;;;2.17;53.64;100384.34;4996951;28;20038;-69
2021/01/01 01:00:05;;;;;;;50.17;18.25;;;;;;;2.17;53.02;100384.34;4997734;28;20052;-70
2021/01/01 01:02:31;;;;;;;42.15;16.67;;;;;;;2.40;53.05;100396.97;4999157;28;20046;-70
2021/01/01 01:04:56;;;;;;;36.03;17.48;;;;;;;2.16;53.72;100387.81;5000251;28;20062;-70
2021/01/01 01:07:22;;;;;;;39.30;17.08;;;;;;;2.22;53.62;100381.72;5000816;28;20057;-70
2021/01/01 01:09:47;;;;;;;36.78;17.65;;;;;;;2.33;53.12;100392.75;5008071;28;20073;-71
2021/01/01 01:12:13;;;;;;;38.83;17.40;;;;;;;2.34;52.88;100387.56;5002671;28;20034;-69
2021/01/01 01:14:38;;;;;;;32.42;18.30;;;;;;;2.37;52.89;100396.16;5001251;28;20033;-70
2021/01/01 01:17:06;;;;;;;35.25;17.70;;;;;;;2.46;52.76;100388.28;5004735;28;20030;-70
2021/01/01 01:19:31;;;;;;;32.45;17.90;;;;;;;2.61;52.51;100392.38;5002085;28;20046;-71
2021/01/01 01:21:57;;;;;;;38.45;19.30;;;;;;;2.61;52.50;100385.47;5003304;28;20042;-73
2021/01/01 01:24:22;;;;;;;44.85;21.20;;;;;;;2.05;54.06;100389.69;5007460;28;20022;-70
2021/01/01 01:26:48;;;;;;;44.95;20.88;;;;;;;2.15;53.75;100386.09;5013603;28;20062;-70
2021/01/01 01:29:13;;;;;;;34.95;19.15;;;;;;;2.09;53.83;100391.34;5005152;28;20038;-72
2021/01/01 01:31:39;;;;;;;39.53;20.13;;;;;;;2.07;53.85;100398.25;5003595;28;20048;-72
2021/01/01 01:34:05;;;;;;;43.30;20.17;;;;;;;1.61;55.01;100398.75;5003707;28;20033;-72
2021/01/01 01:36:33;;;;;;;36.95;19.35;;;;;;;2.18;53.82;100396.41;4999792;28;20486;-71
2021/01/01 01:38:58;;;;;;;39.67;18.67;;;;;;;1.85;54.58;100403.66;4998404;28;20041;-72
2021/01/01 01:41:24;;;;;;;45.28;18.25;;;;;;;2.14;53.97;100405.03;5001169;28;20498;-71
2021/01/01 01:43:49;;;;;;;44.78;22.02;;;;;;;2.13;53.88;100408.47;5001022;28;20096;-71
2021/01/01 01:46:15;;;;;;;37.58;20.45;;;;;;;2.11;53.72;100405.09;5001377;28;20567;-69
2021/01/01 01:48:43;;;;;;;41.78;20.83;;;;;;;1.79;54.94;100401.13;5000511;28;20034;-70
2021/01/01 01:51:13;;;;;;;39.92;20.95;;;;;;;2.17;53.74;100407.56;4994629;28;20034;-71
2021/01/01 01:53:42;;;;;;;50.17;26.58;;;;;;;2.04;54.22;100406.00;5003110;28;20061;-71
2021/01/01 01:56:07;;;;;;;56.15;23.15;;;;;;;2.24;53.44;100409.22;5000575;28;20111;-70
2021/01/01 01:58:34;;;;;;;39.72;19.42;;;;;;;2.21;53.19;100411.81;5001388;28;20078;-69
2021/01/01 02:01:00;;;;;;;38.45;19.70;;;;;;;2.25;53.53;100403.16;5000840;28;20038;-70
2021/01/01 02:03:30;;;;;;;37.60;18.98;;;;;;;2.01;53.86;100406.06;5003936;28;20036;-69
2021/01/01 02:05:56;;;;;;;34.80;17.70;;;;;;;2.17;53.57;100404.97;5001307;28;20029;-70
2021/01/01 02:08:22;;;;;;;41.17;18.48;;;;;;;2.13;53.46;100408.47;5000076;28;20147;-69
2021/01/01 02:10:50;;;;;;;39.47;19.27;;;;;;;1.94;53.99;100403.53;4999582;28;20034;-70
2021/01/01 02:13:16;;;;;;;36.72;18.70;;;;;;;2.03;53.55;100406.88;5003503;28;20056;-70
2021/01/01 02:15:41;;;;;;;35.40;17.98;;;;;;;2.00;53.34;100406.91;5014284;28;20038;-69
2021/01/01 02:18:07;;;;;;;46.53;19.65;;;;;;;1.82;53.97;100410.56;5002218;28;20022;-69
2021/01/01 02:20:32;;;;;;;42.10;19.63;;;;;;;1.53;54.67;100409.16;5006352;28;20040;-73
2021/01/01 02:22:58;;;;;;;40.92;20.35;;;;;;;1.54;54.69;100415.16;5017215;28;20030;-73
2021/01/01 02:25:24;;;;;;;39.22;20.60;;;;;;;1.50;54.92;100416.91;5006532;28;20029;-72
2021/01/01 02:27:49;;;;;;;40.75;19.33;;;;;;;1.60;54.38;100417.69;5003353;28;20411;-73
2021/01/01 02:30:15;;;;;;;43.60;20.05;;;;;;;1.64;54.01;100420.22;5005792;28;20045;-73
2021/01/01 02:32:42;;;;;;;56.03;23.58;;;;;;;1.67;53.77;100421.91;5005999;28;20454;-73
2021/01/01 02:35:08;;;;;;;47.03;20.73;;;;;;;1.64;54.10;100427.94;5004144;28;20034;-73
2021/01/01 02:37:36;;;;;;;76.88;29.75;;;;;;;1.60;54.50;100422.84;5005905;28;20034;-74
2021/01/01 02:40:03;;;;;;;62.97;27.85;;;;;;;1.67;54.40;100424.47;5005367;28;20922;-74
2021/01/01 02:42:29;;;;;;;46.90;20.25;;;;;;;1.43;54.77;100425.56;5004717;28;20397;-74
2021/01/01 02:44:54;;;;;;;43.00;19.45;;;;;;;1.66;54.58;100426.19;5004763;28;20085;-72
2021/01/01 02:47:20;;;;;;;40.67;20.05;;;;;;;1.43;55.63;100423.81;5011549;28;20442;-72
2021/01/01 02:49:45;;;;;;;36.17;18.67;;;;;;;1.56;54.91;100423.72;5012383;28;20109;-72
2021/01/01 02:52:11;;;;;;;37.72;17.83;;;;;;;1.72;54.53;100422.69;5003023;28;20050;-70
2021/01/01 02:54:36;;;;;;;38.53;17.55;;;;;;;1.20;55.83;100423.16;5002908;28;20029;-71
2021/01/01 02:57:02;;;;;;;36.40;18.40;;;;;;;1.63;54.80;100425.38;5000053;28;20037;-70
2021/01/01 02:59:27;;;;;;;36.55;17.83;;;;;;;1.60;54.64;100428.84;5002924;28;20049;-73
2021/01/01 03:01:54;;;;;;;33.28;18.35;;;;;;;1.71;54.36;100427.00;5004503;28;20033;-73
2021/01/01 03:04:20;;;;;;;38.60;16.83;;;;;;;1.76;54.02;100424.38;5006382;28;20482;-70
2021/01/01 03:06:45;;;;;;;45.17;18.67;;;;;;;1.72;53.87;100427.84;5002010;28;20034;-71
2021/01/01 03:09:11;;;;;;;35.03;16.77;;;;;;;1.65;54.01;100426.22;5016534;28;20033;-71
2021/01/01 03:11:37;;;;;;;31.98;15.88;;;;;;;1.61;53.97;100422.78;5000819;28;20402;-71
2021/01/01 03:14:03;;;;;;;34.70;17.58;;;;;;;1.62;54.35;100421.09;5002179;28;20525;-71
2021/01/01 03:16:28;;;;;;;35.65;17.42;;;;;;;1.58;54.28;100419.41;5001052;28;20033;-70
2021/01/01 03:18:54;;;;;;;41.40;17.15;;;;;;;1.60;54.13;100426.25;5002622;28;20026;-71
2021/01/01 03:21:20;;;;;;;42.58;18.13;;;;;;;1.56;54.03;100426.31;5001964;28;20033;-71
2021/01/01 03:23:47;;;;;;;40.00;18.52;;;;;;;1.48;54.50;100419.50;5003128;28;20165;-70
2021/01/01 03:26:12;;;;;;;35.08;16.00;;;;;;;1.54;54.55;100422.88;5002145;28;20445;-70
2021/01/01 03:28:38;;;;;;;35.47;18.85;;;;;;;1.38;54.65;100417.84;4999811;28;20025;-71
2021/01/01 03:31:04;;;;;;;40.28;17.90;;;;;;;1.08;55.87;100422.41;5001937;28;20394;-71
2021/01/01 03:33:29;;;;;;;45.75;19.23;;;;;;;1.40;55.06;100421.28;5003134;28;20095;-71
2021/01/01 03:35:55;;;;;;;40.45;18.33;;;;;;;1.39;55.09;100426.41;4998966;28;20080;-70
2021/01/01 03:38:21;;;;;;;34.95;16.27;;;;;;;1.48;54.58;100432.38;5004243;28;20504;-69
2021/01/01 03:40:49;;;;;;;36.80;17.25;;;;;;;1.45;54.42;100422.09;5000193;28;20073;-70
2021/01/01 03:43:15;;;;;;;43.05;17.58;;;;;;;1.45;54.22;100429.81;5014170;28;20034;-69
2021/01/01 03:45:40;;;;;;;42.85;19.35;;;;;;;1.40;54.41;100431.59;5001265;28;20045;-70
2021/01/01 03:48:07;;;;;;;40.50;19.55;;;;;;;1.39;54.73;100429.00;5004579;28;20034;-73
2021/01/01 03:50:33;;;;;;;38.70;17.73;;;;;;;1.28;54.81;100426.50;5003180;28;20026;-73
2021/01/01 03:52:58;;;;;;;43.22;20.20;;;;;;;1.40;54.66;100426.44;5004142;28;20029;-74
2021/01/01 03:55:26;;;;;;;39.70;19.77;;;;;;;1.45;54.49;100428.97;5022213;28;20024;-73
2021/01/01 03:57:51;;;;;;;41.03;19.17;;;;;;;1.41;54.55;100425.56;5018074;28;20312;-73
2021/01/01 04:00:17;;;;;;;44.67;20.38;;;;;;;1.19;55.43;100424.00;5008174;28;20030;-71
2021/01/01 04:02:43;;;;;;;42.33;21.10;;;;;;;1.27;54.91;100424.81;5003702;28;20121;-71
2021/01/01 04:05:09;;;;;;;39.08;19.88;;;;;;;1.26;54.54;100425.66;5004899;28;20085;-72
2021/01/01 04:07:35;;;;;;;42.65;21.23;;;;;;;1.22;54.75;100417.13;5002662;28;20092;-72
2021/01/01 04:10:01;;;;;;;36.13;18.30;;;;;;;1.29;54.27;100423.09;5007795;28;20287;-71
2021/01/01 04:12:28;;;;;;;40.72;19.73;;;;;;;1.19;53.97;100424.84;4997993;28;20120;-71
2021/01/01 04:14:54;;;;;;;33.65;17.25;;;;;;;1.10;54.20;100428.38;5006230;28;20371;-70
2021/01/01 04:17:19;;;;;;;37.00;17.48;;;;;;;1.12;53.99;100425.78;5006661;28;20037;-70
2021/01/01 04:19:45;;;;;;;32.67;17.05;;;;;;;1.09;54.20;100430.97;5005760;28;20080;-69
2021/01/01 04:22:10;;;;;;;35.92;19.50;;;;;;;1.03;54.22;100436.16;5005734;28;20034;-70
2021/01/01 04:24:35;;;;;;;40.25;19.95;;;;;;;1.01;54.81;100435.31;5003886;28;20506;-70
2021/01/01 04:27:01;;;;;;;44.58;19.50;;;;;;;0.99;54.62;100434.47;5004172;28;20044;-69
2021/01/01 04:29:26;;;;;;;42.47;19.27;;;;;;;0.92;54.42;100425.94;5012957;28;20460;-70
2021/01/01 04:31:52;;;;;;;43.78;19.92;;;;;;;0.89;54.26;100437.09;5001888;28;20046;-70
2021/01/01 04:34:18;;;;;;;44.88;18.02;;;;;;;0.79;53.82;100440.63;5006724;28;20034;-70
2021/01/01 04:36:43;;;;;;;39.10;19.35;;;;;;;0.64;53.94;100433.84;5001412;28;20062;-70
2021/01/01 04:39:08;;;;;;;36.63;18.65;;;;;;;0.64;54.04;100433.00;5014390;28;20053;-70
2021/01/01 04:41:35;;;;;;;47.60;19.75;;;;;;;0.53;54.08;100440.75;5004306;28;20568;-72
2021/01/01 04:44:03;;;;;;;39.08;17.92;;;;;;;0.48;54.36;100434.81;5004333;28;20034;-72
2021/01/01 04:46:29;;;;;;;38.10;18.33;;;;;;;0.44;54.28;100438.25;5002226;28;20034;-70
2021/01/01 04:48:55;;;;;;;39.70;17.90;;;;;;;0.45;54.20;100439.94;5004813;28;20107;-70
2021/01/01 04:51:20;;;;;;;45.33;20.33;;;;;;;0.38;54.23;100440.84;5005290;28;20037;-70
2021/01/01 04:53:47;;;;;;;34.50;19.10;;;;;;;0.33;54.22;100447.72;5002986;28;20487;-68
2021/01/01 04:56:13;;;;;;;39.35;18.55;;;;;;;0.37;54.36;100444.28;5005588;28;20157;-70
2021/01/01 04:58:39;;;;;;;37.00;19.00;;;;;;;0.31;54.65;100449.44;5001597;28;20046;-72
2021/01/01 05:01:04;;;;;;;44.97;19.33;;;;;;;0.33;54.64;100447.72;5004739;28;20030;-72
2021/01/01 05:03:30;;;;;;;33.60;17.88;;;;;;;0.31;54.56;100445.16;5005957;28;20113;-73
2021/01/01 05:05:55;;;;;;;42.72;19.52;;;;;;;0.27;54.47;100446.03;5006531;28;20466;-72
2021/01/01 05:08:22;;;;;;;39.22;17.95;;;;;;;0.30;54.39;100446.03;5008492;28;20037;-72
2021/01/01 05:10:48;;;;;;;46.10;21.00;;;;;;;0.33;54.16;100445.16;5004659;28;20034;-69
2021/01/01 05:13:19;;;;;;;37.08;17.17;;;;;;;0.21;54.26;100452.06;5005216;28;20044;-69
2021/01/01 05:15:47;;;;;;;38.17;19.48;;;;;;;0.22;53.94;100450.34;5002859;28;20042;-69
2021/01/01 05:18:20;;;;;;;42.65;19.75;;;;;;;0.16;54.20;100456.34;5012470;28;20042;-70
2021/01/01 05:20:50;;;;;;;46.58;21.63;;;;;;;0.10;54.38;100458.06;5002891;28;20061;-69
2021/01/01 05:23:23;;;;;;;49.90;23.10;;;;;;;0.01;55.98;100456.38;5005735;28;20544;-69
2021/01/01 05:26:07;;;;;;;53.03;24.38;;;;;;;-0.17;56.74;100449.59;5011912;28;20041;-69
2021/01/01 05:28:41;;;;;;;49.63;24.23;;;;;;;-0.03;56.25;100452.13;5003545;28;20037;-70
2021/01/01 05:31:13;;;;;;;51.40;23.60;;;;;;;-0.08;56.44;100457.28;4999802;28;20054;-71
2021/01/01 05:33:43;;;;;;;61.50;24.20;;;;;;;-0.02;56.31;100456.41;5005603;28;20068;-71
2021/01/01 05:36:09;;;;;;;60.53;24.42;;;;;;;-0.10;56.66;100459.00;5001640;28;20034;-74
2021/01/01 05:38:38;;;;;;;52.92;24.10;;;;;;;0.03;56.61;100455.53;5001722;28;20073;-72
2021/01/01 05:41:04;;;;;;;52.05;24.73;;;;;;;-0.00;56.56;100449.56;5017950;28;20060;-72
2021/01/01 05:43:29;;;;;;;56.40;23.67;;;;;;;0.03;56.51;100449.53;5002614;28;20072;-71
2021/01/01 05:46:07;;;;;;;51.22;23.65;;;;;;;-0.23;57.28;100447.91;5003749;28;20246;-72
2021/01/01 05:48:33;;;;;;;57.80;25.02;;;;;;;-0.21;57.21;100453.88;5004214;28;20030;-72
2021/01/01 05:51:06;;;;;;;56.70;23.45;;;;;;;-0.04;56.19;100461.53;5006712;28;20116;-72
2021/01/01 05:53:32;;;;;;;55.78;23.85;;;;;;;-0.13;56.90;100456.44;5004254;28;20038;-72
2021/01/01 05:56:08;;;;;;;50.40;23.70;;;;;;;0.02;56.30;100465.81;5004379;28;20129;-71
2021/01/01 05:58:33;;;;;;;53.65;24.10;;;;;;;0.05;56.47;100465.81;5002860;28;20030;-71
2021/01/01 06:01:02;;;;;;;43.88;20.52;;;;;;;0.23;55.97;100464.88;5003685;28;20083;-71
2021/01/01 06:03:35;;;;;;;47.53;21.73;;;;;;;0.07;56.49;100466.66;5004449;28;20037;-71
2021/01/01 06:06:05;;;;;;;50.17;23.95;;;;;;;-0.04;57.06;100464.09;5003139;28;20048;-71
2021/01/01 06:08:31;;;;;;;51.70;22.98;;;;;;;-0.02;57.28;100471.81;5004956;28;20034;-71
2021/01/01 06:11:03;;;;;;;51.55;24.10;;;;;;;0.15;56.85;100475.22;5004239;28;20800;-71
2021/01/01 06:13:30;;;;;;;;;;;;;;;0.22;56.64;100481.19;5005046;28;20080;-72
2021/01/01 06:15:57;;;;;;;49.78;22.92;;;;;;;0.23;56.80;100483.75;5002172;28;19913;-71
2021/01/01 06:18:31;;;;;;;54.30;23.02;;;;;;;0.17;56.83;100482.91;5005567;28;20240;-71
2021/01/01 06:21:03;;;;;;;49.53;22.52;;;;;;;0.36;56.56;100486.25;5003857;28;20041;-71
2021/01/01 06:23:34;;;;;;;46.45;22.00;;;;;;;0.17;57.06;100494.06;5000585;28;20037;-70
2021/01/01 06:26:01;;;;;;;43.43;21.77;;;;;;;0.01;57.29;100487.22;5000261;28;20045;-70
2021/01/01 06:28:28;;;;;;;53.17;21.52;;;;;;;-0.11;57.53;100487.25;5016263;28;20289;-69
2021/01/01 06:30:54;;;;;;;43.42;20.35;;;;;;;-0.05;57.70;100497.53;5013179;28;20041;-68
2021/01/01 06:33:20;;;;;;;44.50;20.95;;;;;;;0.33;56.66;100497.41;5003246;28;20136;-68
2021/01/01 06:35:46;;;;;;;49.30;21.90;;;;;;;0.30;56.82;100494.88;5001121;28;20110;-68
2021/01/01 06:38:31;;;;;;;48.97;19.80;;;;;;;0.53;56.15;100496.50;5003909;28;20037;-70
2021/01/01 06:40:57;;;;;;;45.03;21.48;;;;;;;0.50;56.22;100502.47;5001359;28;20033;-70
2021/01/01 06:43:49;;;;;;;47.50;19.20;;;;;;;0.61;55.94;100511.03;5015810;28;20503;-71
2021/01/01 06:46:14;;;;;;;46.13;20.55;;;;;;;0.28;55.99;100504.31;5004616;28;20458;-72
2021/01/01 06:48:42;;;;;;;44.42;18.63;;;;;;;0.49;56.31;100506.78;5002195;28;20041;-72
2021/01/01 06:51:16;;;;;;;37.70;18.65;;;;;;;0.39;56.12;100504.25;5005692;28;20406;-70
2021/01/01 06:53:43;;;;;;;45.35;19.00;;;;;;;0.47;56.12;100507.66;5001663;28;20038;-71
2021/01/01 06:56:10;;;;;;;43.92;19.33;;;;;;;0.45;56.19;100509.38;5005407;28;20036;-71
2021/01/01 06:58:36;;;;;;;43.25;19.77;;;;;;;0.22;56.74;100512.03;5004212;28;20123;-71
2021/01/01 07:01:02;;;;;;;46.90;19.75;;;;;;;0.46;56.02;100505.94;5001476;28;20140;-70
2021/01/01 07:03:30;;;;;;;40.05;19.08;;;;;;;0.54;55.80;100504.19;5002926;28;20029;-70
2021/01/01 07:05:55;;;;;;;49.90;18.98;;;;;;;0.55;55.59;100516.19;5002884;28;20029;-70
2021/01/01 07:08:39;;;;;;;43.33;18.55;;;;;;;0.19;56.40;100523.19;5002615;28;20107;-71
2021/01/01 07:11:24;;;;;;;48.15;19.15;;;;;;;0.08;56.69;100519.78;5002046;28;20095;-70
2021/01/01 07:13:55;;;;;;;40.28;18.52;;;;;;;-0.17;57.23;100524.06;4988918;28;20053;-70
2021/01/01 07:16:25;;;;;;;38.60;16.60;;;;;;;0.26;56.42;100526.59;5004018;28;20029;-70
2021/01/01 07:18:52;;;;;;;34.40;16.60;;;;;;;0.35;55.99;100528.28;5002734;28;20038;-70
2021/01/01 07:21:18;;;;;;;38.10;18.58;;;;;;;0.19;56.29;100530.88;5002260;28;20033;-71
2021/01/01 07:23:45;;;;;;;38.65;18.02;;;;;;;0.41;55.78;100539.41;5000117;28;20073;-70
2021/01/01 07:26:12;;;;;;;39.72;17.67;;;;;;;0.53;55.62;100533.34;5003454;28;20057;-70
2021/01/01 07:28:39;;;;;;;40.53;17.38;;;;;;;0.35;55.87;100534.25;5000825;28;20107;-70
2021/01/01 07:31:07;;;;;;;41.35;17.95;;;;;;;0.48;55.66;100532.53;5000512;28;20040;-71
2021/01/01 07:33:34;;;;;;;41.38;18.48;;;;;;;0.34;55.70;100536.84;4999371;28;20104;-69
2021/01/01 07:36:02;;;;;;;43.95;19.17;;;;;;;0.39;55.92;100540.22;5015795;28;20036;-70
2021/01/01 07:38:30;;;;;;;46.13;17.13;;;;;;;0.42;55.60;100540.25;5005397;28;20026;-71
2021/01/01 07:40:57;;;;;;;39.25;17.60;;;;;;;0.52;55.60;100539.34;4997114;28;20407;-71
2021/01/01 07:43:23;;;;;;;40.08;17.58;;;;;;;0.35;56.39;100557.41;5029625;22;20049;-71
2021/01/01 07:45:49;;;;;;;39.25;18.38;;;;;;;0.26;56.28;100549.72;4992895;28;20045;-71
2021/01/01 07:48:15;;;;;;;40.53;16.25;;;;;;;0.37;56.34;100550.53;4997502;28;20120;-71
2021/01/01 07:50:41;;;;;;;43.20;16.63;;;;;;;0.25;56.48;100553.97;4993576;28;20038;-71
2021/01/01 07:53:11;;;;;;;52.70;18.00;;;;;;;0.16;56.80;100551.44;5010835;28;20512;-71
2021/01/01 07:55:38;;;;;;;42.17;17.52;;;;;;;0.36;55.93;100548.81;4990147;28;20042;-71
2021/01/01 07:58:09;;;;;;;39.05;18.52;;;;;;;0.55;55.82;100552.19;5000075;28;20029;-72
2021/01/01 08:00:37;;;;;;;38.15;18.05;;;;;;;0.57;55.50;100554.75;4993426;28;20038;-71
2021/01/01 08:03:04;;;;;;;41.22;17.33;;;;;;;0.51;55.83;100555.63;4990201;28;20475;-71
2021/01/01 08:05:31;;;;;;;47.08;19.40;;;;;;;0.36;56.30;100565.97;4996712;28;20030;-72
2021/01/01 08:08:23;;;;;;;42.00;18.38;;;;;;;0.72;55.37;100553.84;4990730;28;20026;-71
2021/01/01 08:10:50;;;;;;;34.80;17.35;;;;;;;0.77;54.96;100554.66;4995509;28;20061;-71
2021/01/01 08:13:24;;;;;;;35.50;17.35;;;;;;;0.56;55.27;100565.91;4981809;28;20120;-71
2021/01/01 08:15:51;;;;;;;34.97;15.93;;;;;;;0.79;54.89;100566.69;5011922;28;20118;-71
2021/01/01 08:18:20;;;;;;;34.83;16.77;;;;;;;0.89;54.70;100567.50;4993117;28;20078;-71
2021/01/01 08:21:07;;;;;;;34.80;16.98;;;;;;;0.28;55.61;100564.28;5014376;28;20041;-71
2021/01/01 08:24:11;;;;;;;39.85;16.83;;;;;;;0.48;55.39;100563.38;5009432;28;20038;-72
2021/01/01 08:26:38;;;;;;;34.58;16.95;;;;;;;0.61;55.58;100571.88;4986022;28;20038;-70
2021/01/01 08:29:08;;;;;;;37.50;15.55;;;;;;;0.62;55.07;100569.31;4995436;28;20038;-71
2021/01/01 08:31:35;;;;;;;31.25;15.68;;;;;;;0.75;55.28;100572.69;4993163;28;20041;-71
2021/01/01 08:34:01;;;;;;;34.45;16.67;;;;;;;0.71;55.02;100577.88;5015839;28;20030;-71
2021/01/01 08:36:33;;;;;;;37.42;16.58;;;;;;;0.85;54.83;100570.94;5011425;28;20103;-71
2021/01/01 08:39:07;;;;;;;31.52;15.48;;;;;;;0.44;55.70;100579.66;4997452;28;20026;-71
2021/01/01 08:41:41;;;;;;;36.67;15.52;;;;;;;0.08;56.73;100581.44;5002356;28;20033;-72
2021/01/01 08:44:11;;;;;;;41.72;17.52;;;;;;;0.54;55.63;100571.03;5013531;28;20027;-71
2021/01/01 08:46:37;;;;;;;38.40;17.50;;;;;;;0.59;55.47;100576.16;4999438;28;20085;-71
2021/01/01 08:49:15;;;;;;;36.95;16.83;;;;;;;0.62;55.19;100574.47;4997139;28;20070;-71
2021/01/01 08:51:41;;;;;;;36.10;17.25;;;;;;;0.39;55.80;100584.81;4998618;28;20042;-71
2021/01/01 08:54:06;;;;;;;30.75;14.95;;;;;;;0.27;56.14;100583.13;4995509;28;20811;-71
2021/01/01 08:56:33;;;;;;;32.83;14.77;;;;;;;0.62;55.37;100581.31;5001416;28;20474;-72
2021/01/01 08:59:08;;;;;;;37.60;15.20;;;;;;;0.85;55.02;100582.06;5000117;28;20034;-71
2021/01/01 09:01:34;;;;;;;35.28;15.50;;;;;;;0.58;55.57;100595.91;5013636;28;20064;-71
2021/01/01 09:04:03;;;;;;;30.40;13.02;;;;;;;0.71;55.04;100598.44;4982615;28;20034;-71
2021/01/01 09:06:29;;;;;;;32.55;13.82;;;;;;;0.43;56.44;100594.22;4982381;28;20053;-71
2021/01/01 09:09:09;;;;;;;33.97;16.08;;;;;;;0.51;55.72;100596.78;4983456;28;20125;-71
2021/01/01 09:11:35;;;;;;;29.73;15.43;;;;;;;0.23;57.05;100606.25;5000513;28;20039;-71
2021/01/01 09:14:05;;;;;;;33.92;14.70;;;;;;;0.61;56.01;100598.47;4998818;28;20046;-70
2021/01/01 09:16:30;;;;;;;34.28;15.90;;;;;;;0.62;55.94;100607.91;4997934;28;20057;-71
2021/01/01 09:19:09;;;;;;;30.63;14.63;;;;;;;1.14;54.79;100604.25;5016650;28;20024;-71
2021/01/01 09:21:35;;;;;;;33.30;14.32;;;;;;;0.99;54.44;100600.06;4998055;28;20227;-72
2021/01/01 09:24:00;;;;;;;33.60;15.48;;;;;;;0.99;54.74;100614.63;5000743;28;20503;-70
2021/01/01 09:26:28;;;;;;;34.88;16.80;;;;;;;0.87;55.39;100613.81;5014025;28;20034;-70
2021/01/01 09:29:01;;;;;;;38.25;14.55;;;;;;;1.32;54.62;100621.31;4998040;28;20038;-71
2021/01/01 09:31:27;;;;;;;34.85;14.48;;;;;;;1.13;54.34;100617.13;4991695;28;20036;-71
2021/01/01 09:34:04;;;;;;;32.50;13.73;;;;;;;1.52;54.18;100616.06;5008632;28;20470;-71
2021/01/01 09:36:34;;;;;;;28.75;14.63;;;;;;;1.27;54.50;100618.75;5000882;28;20569;-70
2021/01/01 09:39:01;;;;;;;32.95;14.15;;;;;;;1.82;53.87;100620.16;4997739;28;20042;-70
2021/01/01 09:41:27;;;;;;;36.15;15.60;;;;;;;1.80;53.16;100618.47;4979350;28;20030;-71
2021/01/01 09:43:53;;;;;;;31.25;15.30;;;;;;;2.19;53.31;100614.69;4998506;28;20042;-70
2021/01/01 09:46:18;;;;;;;43.35;15.95;;;;;;;2.08;54.02;100626.81;4997056;28;20038;-70
2021/01/01 09:48:43;;;;;;;30.50;16.45;;;;;;;2.18;53.21;100623.31;5001521;28;20042;-71
2021/01/01 09:51:09;;;;;;;27.33;14.10;;;;;;;2.55;52.85;100622.91;4990935;28;20109;-70
2021/01/01 09:53:35;;;;;;;31.08;14.20;;;;;;;2.93;51.58;100619.03;4997114;28;20047;-70
2021/01/01 09:56:00;;;;;;;30.83;15.60;;;;;;;2.43;51.93;100625.66;4998927;28;20038;-70
2021/01/01 09:58:25;;;;;;;31.23;14.68;;;;;;;2.16;52.38;100625.03;4994924;28;20478;-70
2021/01/01 10:00:51;;;;;;;25.48;14.05;;;;;;;2.51;53.44;100623.81;4996375;28;20030;-70
2021/01/01 10:03:17;;;;;;;32.45;14.13;;;;;;;3.56;51.64;100624.25;4995421;28;20116;-71
2021/01/01 10:05:42;;;;;;;28.75;13.02;;;;;;;3.79;51.86;100629.06;4995691;28;20033;-70
2021/01/01 10:08:08;;;;;;;28.35;14.27;;;;;;;3.77;49.00;100622.22;4999884;28;20119;-70
2021/01/01 10:10:33;;;;;;;29.92;12.93;;;;;;;3.75;49.59;100626.56;5000143;28;20045;-71
2021/01/01 10:13:00;;;;;;;28.35;13.15;;;;;;;3.27;50.79;100629.81;4999905;28;20031;-71
2021/01/01 10:15:25;;;;;;;22.92;12.43;;;;;;;2.63;51.79;100634.03;4990873;28;20483;-71
2021/01/01 10:17:51;;;;;;;28.70;13.48;;;;;;;3.11;51.10;100639.50;4994540;28;20027;-71
2021/01/01 10:20:16;;;;;;;24.67;13.23;;;;;;;3.82;51.05;100640.25;4998070;28;20026;-71
2021/01/01 10:22:42;;;;;;;26.45;12.40;;;;;;;2.59;52.79;100631.50;4981412;28;20776;-71
2021/01/01 10:25:08;;;;;;;21.83;12.52;;;;;;;3.48;50.34;100639.00;5008089;28;20456;-71
2021/01/01 10:27:34;;;;;;;31.15;14.55;;;;;;;3.02;51.28;100634.41;4995810;28;20038;-71
2021/01/01 10:29:59;;;;;;;24.83;12.02;;;;;;;3.72;50.73;100636.97;4998289;28;20052;-71
2021/01/01 10:32:25;;;;;;;21.73;11.60;;;;;;;3.14;50.91;100636.88;4973523;28;20499;-72
2021/01/01 10:34:50;;;;;;;25.00;13.32;;;;;;;3.05;51.74;100638.72;4977706;28;20034;-71
2021/01/01 10:37:16;;;;;;;26.02;13.70;;;;;;;2.92;52.76;100628.53;4990633;28;20038;-71
2021/01/01 10:39:41;;;;;;;27.52;12.40;;;;;;;2.73;52.93;100633.06;4989916;28;20076;-72
2021/01/01 10:42:07;;;;;;;32.05;14.85;;;;;;;2.97;52.92;100637.06;4993097;28;20089;-72
2021/01/01 10:44:33;;;;;;;27.30;13.63;;;;;;;3.25;52.65;100635.84;4992050;28;20669;-72
2021/01/01 10:46:58;;;;;;;29.15;15.45;;;;;;;3.28;52.35;100628.94;4997049;28;20046;-71
2021/01/01 10:49:25;;;;;;;29.10;13.45;;;;;;;3.38;51.64;100632.25;4993938;28;20069;-71
2021/01/01 10:51:55;;;;;;;28.30;12.73;;;;;;;2.54;53.80;100627.22;4993264;28;20113;-71
2021/01/01 10:54:20;;;;;;;29.23;13.02;;;;;;;2.85;53.91;100632.06;4994858;28;20038;-71
2021/01/01 10:56:46;;;;;;;25.15;13.63;;;;;;;2.24;54.56;100636.16;4977777;28;20073;-70
2021/01/01 10:59:12;;;;;;;28.70;13.63;;;;;;;2.54;54.95;100628.97;4991411;28;20050;-71
2021/01/01 11:01:38;;;;;;;30.08;12.60;;;;;;;3.33;52.51;100629.75;4973206;28;20100;-71
2021/01/01 11:04:03;;;;;;;28.77;12.30;;;;;;;3.13;52.99;100637.72;4988626;28;20042;-70
2021/01/01 11:06:29;;;;;;;30.13;13.20;;;;;;;3.27;53.02;100634.09;4990991;28;20779;-71
2021/01/01 11:08:54;;;;;;;30.42;14.35;;;;;;;3.42;52.21;100633.09;4988822;28;20073;-71
2021/01/01 11:11:22;;;;;;;29.95;15.65;;;;;;;3.01;53.39;100632.72;4993820;28;20037;-71
2021/01/01 12:25:14;;;;;;;31.27;14.25;;;;;;;3.73;53.17;100608.47;5009584;28;20069;-71
2021/01/01 12:27:44;;;;;;;24.25;14.02;;;;;;;3.74;53.57;100615.38;4978897;28;20053;-70
2021/01/01 12:30:11;;;;;;;28.33;13.32;;;;;;;3.91;53.04;100616.81;5000073;28;20187;-70